sensor_id;sensor_type;location;lat;lon;timestamp;P1;durP1;ratioP1;P2;durP2;ratioP2
64678;SDS011;51094;53.864;27.676;2023-07-31T00:00:04;5.78;;;5.68;;
64678;SDS011;51094;53.864;27.676;2023-07-31T00:02:32;5.68;;;5.57;;
64678;SDS011;51094;53.864;27.676;2023-07-31T00:04:59;5.95;;;5.85;;
64678;SDS011;51094;53.864;27.676;2023-07-31T00:07:26;6.10;;;6.00;;
64678;SDS011;51094;53.864;27.676;2023-07-31T00:09:53;5.72;;;5.63;;
64678;SDS011;51094;53.864;27.676;2023-07-31T00:12:20;5.82;;;5.72;;
64678;SDS011;51094;53.864;27.676;2023-07-31T00:14:47;5.45;;;5.35;;
64678;SDS011;51094;53.864;27.676;2023-07-31T00:17:14;5.80;;;5.70;;
64678;SDS011;51094;53.864;27.676;2023-07-31T00:19:41;5.40;;;5.30;;
64678;SDS011;51094;53.864;27.676;2023-07-31T00:22:08;5.10;;;5.00;;
64678;SDS011;51094;53.864;27.676;2023-07-31T00:24:35;5.53;;;5.43;;
64678;SDS011;51094;53.864;27.676;2023-07-31T00:27:02;5.35;;;5.25;;
64678;SDS011;51094;53.864;27.676;2023-07-31T00:29:29;5.25;;;5.15;;
64678;SDS011;51094;53.864;27.676;2023-07-31T00:31:56;5.97;;;5.88;;
64678;SDS011;51094;53.864;27.676;2023-07-31T00:34:23;5.10;;;5.00;;
64678;SDS011;51094;53.864;27.676;2023-07-31T00:36:50;5.60;;;5.50;;
64678;SDS011;51094;53.864;27.676;2023-07-31T00:39:17;5.68;;;5.57;;
64678;SDS011;51094;53.864;27.676;2023-07-31T00:41:44;5.50;;;5.40;;
64678;SDS011;51094;53.864;27.676;2023-07-31T00:44:11;5.50;;;5.40;;
64678;SDS011;51094;53.864;27.676;2023-07-31T00:46:38;5.78;;;5.68;;
64678;SDS011;51094;53.864;27.676;2023-07-31T00:49:05;4.90;;;4.90;;
64678;SDS011;51094;53.864;27.676;2023-07-31T00:51:32;5.50;;;5.40;;
64678;SDS011;51094;53.864;27.676;2023-07-31T00:53:59;5.03;;;4.95;;
64678;SDS011;51094;53.864;27.676;2023-07-31T00:56:27;5.65;;;5.55;;
64678;SDS011;51094;53.864;27.676;2023-07-31T00:58:55;5.38;;;5.28;;
64678;SDS011;51094;53.864;27.676;2023-07-31T01:01:22;5.50;;;5.40;;
64678;SDS011;51094;53.864;27.676;2023-07-31T01:03:50;5.57;;;5.47;;
64678;SDS011;51094;53.864;27.676;2023-07-31T01:06:24;5.28;;;5.18;;
64678;SDS011;51094;53.864;27.676;2023-07-31T01:09:16;5.43;;;5.32;;
64678;SDS011;51094;53.864;27.676;2023-07-31T01:12:00;5.18;;;5.07;;
64678;SDS011;51094;53.864;27.676;2023-07-31T01:14:29;4.70;;;4.60;;
64678;SDS011;51094;53.864;27.676;2023-07-31T01:16:56;4.95;;;4.85;;
64678;SDS011;51094;53.864;27.676;2023-07-31T01:19:24;4.70;;;4.60;;
64678;SDS011;51094;53.864;27.676;2023-07-31T01:22:16;5.18;;;5.07;;
64678;SDS011;51094;53.864;27.676;2023-07-31T01:27:34;4.80;;;4.70;;
64678;SDS011;51094;53.864;27.676;2023-07-31T01:30:11;4.90;;;4.80;;
64678;SDS011;51094;53.864;27.676;2023-07-31T01:32:43;4.90;;;4.80;;
64678;SDS011;51094;53.864;27.676;2023-07-31T01:35:14;4.55;;;4.45;;
64678;SDS011;51094;53.864;27.676;2023-07-31T01:37:41;4.90;;;4.80;;
64678;SDS011;51094;53.864;27.676;2023-07-31T01:40:08;4.32;;;4.32;;
64678;SDS011;51094;53.864;27.676;2023-07-31T01:42:36;4.13;;;4.13;;
64678;SDS011;51094;53.864;27.676;2023-07-31T01:45:03;4.57;;;4.57;;
64678;SDS011;51094;53.864;27.676;2023-07-31T01:47:30;4.50;;;4.50;;
64678;SDS011;51094;53.864;27.676;2023-07-31T01:49:57;4.38;;;4.28;;
64678;SDS011;51094;53.864;27.676;2023-07-31T01:52:24;4.70;;;4.60;;
64678;SDS011;51094;53.864;27.676;2023-07-31T01:54:51;4.90;;;4.80;;
64678;SDS011;51094;53.864;27.676;2023-07-31T01:57:18;4.60;;;4.50;;
64678;SDS011;51094;53.864;27.676;2023-07-31T01:59:45;4.32;;;4.32;;
64678;SDS011;51094;53.864;27.676;2023-07-31T02:02:12;4.85;;;4.75;;
64678;SDS011;51094;53.864;27.676;2023-07-31T02:04:39;4.20;;;4.10;;
64678;SDS011;51094;53.864;27.676;2023-07-31T02:07:07;5.05;;;4.95;;
64678;SDS011;51094;53.864;27.676;2023-07-31T02:09:37;5.10;;;5.00;;
64678;SDS011;51094;53.864;27.676;2023-07-31T02:12:04;5.43;;;5.32;;
64678;SDS011;51094;53.864;27.676;2023-07-31T02:14:32;4.80;;;4.70;;
64678;SDS011;51094;53.864;27.676;2023-07-31T02:16:58;4.55;;;4.45;;
64678;SDS011;51094;53.864;27.676;2023-07-31T02:19:25;5.03;;;4.93;;
64678;SDS011;51094;53.864;27.676;2023-07-31T02:21:52;4.90;;;4.80;;
64678;SDS011;51094;53.864;27.676;2023-07-31T02:24:19;5.20;;;5.10;;
64678;SDS011;51094;53.864;27.676;2023-07-31T02:26:45;5.38;;;5.18;;
64678;SDS011;51094;53.864;27.676;2023-07-31T02:29:13;5.00;;;4.90;;
64678;SDS011;51094;53.864;27.676;2023-07-31T02:31:39;5.32;;;5.22;;
64678;SDS011;51094;53.864;27.676;2023-07-31T02:34:06;5.55;;;5.45;;
64678;SDS011;51094;53.864;27.676;2023-07-31T02:36:33;4.68;;;4.57;;
64678;SDS011;51094;53.864;27.676;2023-07-31T02:39:00;5.30;;;5.20;;
64678;SDS011;51094;53.864;27.676;2023-07-31T02:41:27;5.28;;;5.18;;
64678;SDS011;51094;53.864;27.676;2023-07-31T02:43:54;5.50;;;5.40;;
64678;SDS011;51094;53.864;27.676;2023-07-31T02:46:20;5.45;;;5.25;;
64678;SDS011;51094;53.864;27.676;2023-07-31T02:48:51;4.85;;;4.75;;
64678;SDS011;51094;53.864;27.676;2023-07-31T02:51:18;4.43;;;4.43;;
64678;SDS011;51094;53.864;27.676;2023-07-31T02:53:44;4.93;;;4.82;;
64678;SDS011;51094;53.864;27.676;2023-07-31T02:56:11;5.10;;;5.03;;
64678;SDS011;51094;53.864;27.676;2023-07-31T02:58:38;5.13;;;5.03;;
64678;SDS011;51094;53.864;27.676;2023-07-31T03:01:05;4.60;;;4.40;;
64678;SDS011;51094;53.864;27.676;2023-07-31T03:03:32;4.45;;;4.25;;
64678;SDS011;51094;53.864;27.676;2023-07-31T03:05:59;5.38;;;4.93;;
64678;SDS011;51094;53.864;27.676;2023-07-31T03:08:26;4.97;;;4.68;;
64678;SDS011;51094;53.864;27.676;2023-07-31T03:10:52;4.55;;;4.38;;
64678;SDS011;51094;53.864;27.676;2023-07-31T03:13:21;4.28;;;4.18;;
64678;SDS011;51094;53.864;27.676;2023-07-31T03:15:48;4.82;;;4.63;;
64678;SDS011;51094;53.864;27.676;2023-07-31T03:18:15;4.55;;;4.45;;
64678;SDS011;51094;53.864;27.676;2023-07-31T03:20:42;4.60;;;4.50;;
64678;SDS011;51094;53.864;27.676;2023-07-31T03:23:10;5.15;;;4.90;;
64678;SDS011;51094;53.864;27.676;2023-07-31T03:25:37;6.00;;;5.40;;
64678;SDS011;51094;53.864;27.676;2023-07-31T03:28:04;4.82;;;4.63;;
64678;SDS011;51094;53.864;27.676;2023-07-31T03:30:31;5.30;;;4.90;;
64678;SDS011;51094;53.864;27.676;2023-07-31T03:32:58;5.30;;;5.07;;
64678;SDS011;51094;53.864;27.676;2023-07-31T03:35:26;5.65;;;5.35;;
64678;SDS011;51094;53.864;27.676;2023-07-31T03:37:53;5.50;;;5.30;;
64678;SDS011;51094;53.864;27.676;2023-07-31T03:40:20;4.63;;;4.53;;
64678;SDS011;51094;53.864;27.676;2023-07-31T03:42:46;5.20;;;5.00;;
64678;SDS011;51094;53.864;27.676;2023-07-31T03:45:13;4.38;;;4.28;;
64678;SDS011;51094;53.864;27.676;2023-07-31T03:47:40;4.53;;;4.43;;
64678;SDS011;51094;53.864;27.676;2023-07-31T03:50:07;5.03;;;4.82;;
64678;SDS011;51094;53.864;27.676;2023-07-31T03:52:35;4.75;;;4.63;;
64678;SDS011;51094;53.864;27.676;2023-07-31T03:55:02;5.53;;;5.43;;
64678;SDS011;51094;53.864;27.676;2023-07-31T03:57:29;5.15;;;4.95;;
64678;SDS011;51094;53.864;27.676;2023-07-31T03:59:56;5.90;;;5.70;;
64678;SDS011;51094;53.864;27.676;2023-07-31T04:02:22;5.80;;;5.60;;
64678;SDS011;51094;53.864;27.676;2023-07-31T04:04:49;6.38;;;6.18;;
64678;SDS011;51094;53.864;27.676;2023-07-31T04:07:16;6.60;;;6.40;;
64678;SDS011;51094;53.864;27.676;2023-07-31T04:09:45;7.22;;;7.03;;
64678;SDS011;51094;53.864;27.676;2023-07-31T04:12:13;8.00;;;7.70;;
64678;SDS011;51094;53.864;27.676;2023-07-31T04:14:40;7.75;;;7.45;;
64678;SDS011;51094;53.864;27.676;2023-07-31T04:17:07;7.43;;;7.13;;
64678;SDS011;51094;53.864;27.676;2023-07-31T04:19:37;8.02;;;7.72;;
64678;SDS011;51094;53.864;27.676;2023-07-31T04:22:05;7.80;;;7.50;;
64678;SDS011;51094;53.864;27.676;2023-07-31T04:24:31;8.48;;;8.07;;
64678;SDS011;51094;53.864;27.676;2023-07-31T04:26:58;8.25;;;7.95;;
64678;SDS011;51094;53.864;27.676;2023-07-31T04:29:25;8.40;;;8.10;;
64678;SDS011;51094;53.864;27.676;2023-07-31T04:31:52;7.88;;;7.57;;
64678;SDS011;51094;53.864;27.676;2023-07-31T04:34:19;7.80;;;7.50;;
64678;SDS011;51094;53.864;27.676;2023-07-31T04:36:46;8.25;;;7.95;;
64678;SDS011;51094;53.864;27.676;2023-07-31T04:39:13;7.20;;;7.00;;
64678;SDS011;51094;53.864;27.676;2023-07-31T04:41:39;6.93;;;6.72;;
64678;SDS011;51094;53.864;27.676;2023-07-31T04:44:06;7.78;;;7.55;;
64678;SDS011;51094;53.864;27.676;2023-07-31T04:46:33;8.18;;;7.90;;
64678;SDS011;51094;53.864;27.676;2023-07-31T04:49:00;8.55;;;8.25;;
64678;SDS011;51094;53.864;27.676;2023-07-31T04:51:27;7.88;;;7.68;;
64678;SDS011;51094;53.864;27.676;2023-07-31T04:53:54;8.30;;;8.00;;
64678;SDS011;51094;53.864;27.676;2023-07-31T04:56:22;8.50;;;8.20;;
64678;SDS011;51094;53.864;27.676;2023-07-31T04:58:49;8.32;;;8.13;;
64678;SDS011;51094;53.864;27.676;2023-07-31T05:01:16;7.85;;;7.65;;
64678;SDS011;51094;53.864;27.676;2023-07-31T05:03:42;9.00;;;8.70;;
64678;SDS011;51094;53.864;27.676;2023-07-31T05:06:09;8.80;;;8.50;;
64678;SDS011;51094;53.864;27.676;2023-07-31T05:08:37;8.95;;;8.65;;
64678;SDS011;51094;53.864;27.676;2023-07-31T05:11:03;9.52;;;9.23;;
64678;SDS011;51094;53.864;27.676;2023-07-31T05:13:30;8.20;;;8.00;;
64678;SDS011;51094;53.864;27.676;2023-07-31T05:15:57;8.38;;;8.07;;
64678;SDS011;51094;53.864;27.676;2023-07-31T05:18:27;8.73;;;8.52;;
64678;SDS011;51094;53.864;27.676;2023-07-31T05:20:54;8.40;;;8.10;;
64678;SDS011;51094;53.864;27.676;2023-07-31T05:23:20;9.13;;;8.82;;
64678;SDS011;51094;53.864;27.676;2023-07-31T05:25:47;8.30;;;8.10;;
64678;SDS011;51094;53.864;27.676;2023-07-31T05:28:14;9.07;;;8.88;;
64678;SDS011;51094;53.864;27.676;2023-07-31T05:30:41;8.95;;;8.65;;
64678;SDS011;51094;53.864;27.676;2023-07-31T05:33:08;8.43;;;8.23;;
64678;SDS011;51094;53.864;27.676;2023-07-31T05:35:36;8.18;;;7.97;;
64678;SDS011;51094;53.864;27.676;2023-07-31T05:38:03;9.95;;;9.63;;
64678;SDS011;51094;53.864;27.676;2023-07-31T05:40:32;9.20;;;8.90;;
64678;SDS011;51094;53.864;27.676;2023-07-31T05:42:59;10.38;;;10.07;;
64678;SDS011;51094;53.864;27.676;2023-07-31T05:45:26;8.90;;;8.70;;
64678;SDS011;51094;53.864;27.676;2023-07-31T05:47:53;9.25;;;8.98;;
64678;SDS011;51094;53.864;27.676;2023-07-31T05:50:20;9.63;;;9.40;;
64678;SDS011;51094;53.864;27.676;2023-07-31T05:52:47;12.10;;;11.70;;
64678;SDS011;51094;53.864;27.676;2023-07-31T05:55:13;11.00;;;10.70;;
64678;SDS011;51094;53.864;27.676;2023-07-31T05:57:40;11.48;;;11.18;;
64678;SDS011;51094;53.864;27.676;2023-07-31T06:00:07;11.43;;;11.13;;
64678;SDS011;51094;53.864;27.676;2023-07-31T06:02:34;11.80;;;11.48;;
64678;SDS011;51094;53.864;27.676;2023-07-31T06:05:03;12.00;;;11.70;;
64678;SDS011;51094;53.864;27.676;2023-07-31T06:07:32;12.57;;;12.27;;
64678;SDS011;51094;53.864;27.676;2023-07-31T06:09:59;11.52;;;11.23;;
64678;SDS011;51094;53.864;27.676;2023-07-31T06:12:32;11.52;;;11.23;;
64678;SDS011;51094;53.864;27.676;2023-07-31T06:15:00;12.02;;;11.63;;
64678;SDS011;51094;53.864;27.676;2023-07-31T06:17:28;11.40;;;11.02;;
64678;SDS011;51094;53.864;27.676;2023-07-31T06:19:56;10.10;;;9.90;;
64678;SDS011;51094;53.864;27.676;2023-07-31T06:22:23;9.18;;;8.98;;
64678;SDS011;51094;53.864;27.676;2023-07-31T06:24:50;9.20;;;9.00;;
64678;SDS011;51094;53.864;27.676;2023-07-31T06:27:17;9.25;;;9.05;;
64678;SDS011;51094;53.864;27.676;2023-07-31T06:29:44;9.70;;;9.50;;
64678;SDS011;51094;53.864;27.676;2023-07-31T06:32:12;9.00;;;8.80;;
64678;SDS011;51094;53.864;27.676;2023-07-31T06:34:39;9.20;;;9.00;;
64678;SDS011;51094;53.864;27.676;2023-07-31T06:37:06;7.63;;;7.53;;
64678;SDS011;51094;53.864;27.676;2023-07-31T06:39:33;8.38;;;8.18;;
64678;SDS011;51094;53.864;27.676;2023-07-31T06:42:00;9.00;;;8.80;;
64678;SDS011;51094;53.864;27.676;2023-07-31T06:44:27;8.60;;;8.40;;
64678;SDS011;51094;53.864;27.676;2023-07-31T06:46:53;8.88;;;8.68;;
64678;SDS011;51094;53.864;27.676;2023-07-31T06:49:20;7.55;;;7.45;;
64678;SDS011;51094;53.864;27.676;2023-07-31T06:51:47;7.25;;;7.15;;
64678;SDS011;51094;53.864;27.676;2023-07-31T06:54:14;7.30;;;7.20;;
64678;SDS011;51094;53.864;27.676;2023-07-31T06:56:41;7.57;;;7.45;;
64678;SDS011;51094;53.864;27.676;2023-07-31T06:59:08;7.82;;;7.72;;
64678;SDS011;51094;53.864;27.676;2023-07-31T07:01:35;7.13;;;7.03;;
64678;SDS011;51094;53.864;27.676;2023-07-31T07:04:02;7.40;;;7.30;;
64678;SDS011;51094;53.864;27.676;2023-07-31T07:06:29;7.25;;;7.15;;
64678;SDS011;51094;53.864;27.676;2023-07-31T07:08:56;7.28;;;7.18;;
64678;SDS011;51094;53.864;27.676;2023-07-31T07:11:23;6.60;;;6.50;;
64678;SDS011;51094;53.864;27.676;2023-07-31T07:13:50;6.35;;;6.25;;
64678;SDS011;51094;53.864;27.676;2023-07-31T07:16:17;6.18;;;6.07;;
64678;SDS011;51094;53.864;27.676;2023-07-31T07:18:44;5.97;;;5.80;;
64678;SDS011;51094;53.864;27.676;2023-07-31T07:21:29;5.13;;;5.03;;
64678;SDS011;51094;53.864;27.676;2023-07-31T07:23:56;4.50;;;4.40;;
64678;SDS011;51094;53.864;27.676;2023-07-31T07:26:23;3.95;;;3.85;;
64678;SDS011;51094;53.864;27.676;2023-07-31T07:28:50;4.30;;;4.20;;
64678;SDS011;51094;53.864;27.676;2023-07-31T07:31:17;4.47;;;4.38;;
64678;SDS011;51094;53.864;27.676;2023-07-31T07:33:44;2.05;;;2.05;;
64678;SDS011;51094;53.864;27.676;2023-07-31T07:36:10;1.92;;;1.92;;
64678;SDS011;51094;53.864;27.676;2023-07-31T07:38:39;1.80;;;1.80;;
64678;SDS011;51094;53.864;27.676;2023-07-31T07:41:06;1.88;;;1.88;;
64678;SDS011;51094;53.864;27.676;2023-07-31T07:43:33;2.10;;;2.10;;
64678;SDS011;51094;53.864;27.676;2023-07-31T07:46:00;1.60;;;1.60;;
64678;SDS011;51094;53.864;27.676;2023-07-31T07:48:27;1.50;;;1.50;;
64678;SDS011;51094;53.864;27.676;2023-07-31T07:50:54;1.55;;;1.55;;
64678;SDS011;51094;53.864;27.676;2023-07-31T07:53:21;1.75;;;1.75;;
64678;SDS011;51094;53.864;27.676;2023-07-31T07:55:47;1.55;;;1.55;;
64678;SDS011;51094;53.864;27.676;2023-07-31T07:58:14;1.48;;;1.48;;
64678;SDS011;51094;53.864;27.676;2023-07-31T08:00:47;1.40;;;1.40;;
64678;SDS011;51094;53.864;27.676;2023-07-31T08:03:15;1.67;;;1.67;;
64678;SDS011;51094;53.864;27.676;2023-07-31T08:05:43;1.73;;;1.73;;
64678;SDS011;51094;53.864;27.676;2023-07-31T08:08:14;2.30;;;2.20;;
64678;SDS011;51094;53.864;27.676;2023-07-31T08:10:45;2.38;;;2.28;;
64678;SDS011;51094;53.864;27.676;2023-07-31T08:13:12;1.70;;;1.70;;
64678;SDS011;51094;53.864;27.676;2023-07-31T08:15:40;1.73;;;1.73;;
64678;SDS011;51094;53.864;27.676;2023-07-31T08:18:08;2.15;;;2.10;;
64678;SDS011;51094;53.864;27.676;2023-07-31T08:20:36;1.42;;;1.42;;
64678;SDS011;51094;53.864;27.676;2023-07-31T08:23:02;1.50;;;1.50;;
64678;SDS011;51094;53.864;27.676;2023-07-31T08:25:30;1.60;;;1.60;;
64678;SDS011;51094;53.864;27.676;2023-07-31T08:27:57;1.60;;;1.52;;
64678;SDS011;51094;53.864;27.676;2023-07-31T08:30:23;1.60;;;1.60;;
64678;SDS011;51094;53.864;27.676;2023-07-31T08:32:50;1.40;;;1.40;;
64678;SDS011;51094;53.864;27.676;2023-07-31T08:35:17;1.48;;;1.48;;
64678;SDS011;51094;53.864;27.676;2023-07-31T08:37:45;1.38;;;1.38;;
64678;SDS011;51094;53.864;27.676;2023-07-31T08:40:12;1.67;;;1.67;;
64678;SDS011;51094;53.864;27.676;2023-07-31T08:42:43;1.50;;;1.50;;
64678;SDS011;51094;53.864;27.676;2023-07-31T08:45:15;1.30;;;1.30;;
64678;SDS011;51094;53.864;27.676;2023-07-31T08:47:47;1.20;;;1.20;;
64678;SDS011;51094;53.864;27.676;2023-07-31T08:50:18;1.20;;;1.20;;
64678;SDS011;51094;53.864;27.676;2023-07-31T08:52:47;1.25;;;1.25;;
64678;SDS011;51094;53.864;27.676;2023-07-31T08:55:16;1.20;;;1.20;;
64678;SDS011;51094;53.864;27.676;2023-07-31T08:57:44;0.93;;;0.93;;
64678;SDS011;51094;53.864;27.676;2023-07-31T09:00:13;1.02;;;1.02;;
64678;SDS011;51094;53.864;27.676;2023-07-31T09:02:45;1.20;;;1.20;;
64678;SDS011;51094;53.864;27.676;2023-07-31T09:05:15;1.10;;;1.10;;
64678;SDS011;51094;53.864;27.676;2023-07-31T09:07:43;1.20;;;1.20;;
64678;SDS011;51094;53.864;27.676;2023-07-31T09:10:13;1.10;;;1.10;;
64678;SDS011;51094;53.864;27.676;2023-07-31T09:12:41;1.20;;;1.20;;
64678;SDS011;51094;53.864;27.676;2023-07-31T09:15:08;1.38;;;1.38;;
64678;SDS011;51094;53.864;27.676;2023-07-31T09:17:46;1.20;;;1.20;;
64678;SDS011;51094;53.864;27.676;2023-07-31T09:20:19;1.20;;;1.20;;
64678;SDS011;51094;53.864;27.676;2023-07-31T09:22:50;1.10;;;1.10;;
64678;SDS011;51094;53.864;27.676;2023-07-31T09:27:59;0.70;;;0.70;;
64678;SDS011;51094;53.864;27.676;2023-07-31T09:30:28;0.90;;;0.90;;
64678;SDS011;51094;53.864;27.676;2023-07-31T09:33:02;0.95;;;0.95;;
64678;SDS011;51094;53.864;27.676;2023-07-31T09:35:34;0.90;;;0.90;;
64678;SDS011;51094;53.864;27.676;2023-07-31T09:38:14;0.70;;;0.70;;
64678;SDS011;51094;53.864;27.676;2023-07-31T09:40:45;0.70;;;0.70;;
64678;SDS011;51094;53.864;27.676;2023-07-31T09:43:16;0.90;;;0.90;;
64678;SDS011;51094;53.864;27.676;2023-07-31T09:45:45;0.80;;;0.80;;
64678;SDS011;51094;53.864;27.676;2023-07-31T09:48:14;0.82;;;0.82;;
64678;SDS011;51094;53.864;27.676;2023-07-31T09:50:46;0.88;;;0.88;;
64678;SDS011;51094;53.864;27.676;2023-07-31T09:53:16;0.90;;;0.90;;
64678;SDS011;51094;53.864;27.676;2023-07-31T09:55:43;0.75;;;0.75;;
64678;SDS011;51094;53.864;27.676;2023-07-31T09:58:11;0.80;;;0.80;;
64678;SDS011;51094;53.864;27.676;2023-07-31T10:00:39;0.77;;;0.77;;
64678;SDS011;51094;53.864;27.676;2023-07-31T10:03:07;0.80;;;0.80;;
64678;SDS011;51094;53.864;27.676;2023-07-31T10:05:36;0.90;;;0.90;;
64678;SDS011;51094;53.864;27.676;2023-07-31T10:08:06;0.70;;;0.70;;
64678;SDS011;51094;53.864;27.676;2023-07-31T10:10:36;1.00;;;1.00;;
64678;SDS011;51094;53.864;27.676;2023-07-31T10:13:04;0.90;;;0.90;;
64678;SDS011;51094;53.864;27.676;2023-07-31T10:15:32;1.00;;;1.00;;
64678;SDS011;51094;53.864;27.676;2023-07-31T10:18:01;0.98;;;0.98;;
64678;SDS011;51094;53.864;27.676;2023-07-31T10:20:29;0.93;;;0.93;;
64678;SDS011;51094;53.864;27.676;2023-07-31T10:22:56;1.20;;;1.20;;
64678;SDS011;51094;53.864;27.676;2023-07-31T10:25:25;1.40;;;1.40;;
64678;SDS011;51094;53.864;27.676;2023-07-31T10:27:54;1.10;;;1.10;;
64678;SDS011;51094;53.864;27.676;2023-07-31T10:30:22;0.80;;;0.80;;
64678;SDS011;51094;53.864;27.676;2023-07-31T10:32:53;0.70;;;0.70;;
64678;SDS011;51094;53.864;27.676;2023-07-31T10:35:21;0.70;;;0.70;;
64678;SDS011;51094;53.864;27.676;2023-07-31T10:37:52;0.88;;;0.88;;
64678;SDS011;51094;53.864;27.676;2023-07-31T10:40:24;0.80;;;0.80;;
64678;SDS011;51094;53.864;27.676;2023-07-31T10:42:53;0.85;;;0.85;;
64678;SDS011;51094;53.864;27.676;2023-07-31T10:48:00;0.90;;;0.90;;
64678;SDS011;51094;53.864;27.676;2023-07-31T10:50:30;0.90;;;0.90;;
64678;SDS011;51094;53.864;27.676;2023-07-31T10:53:00;0.70;;;0.70;;
64678;SDS011;51094;53.864;27.676;2023-07-31T10:55:38;0.80;;;0.80;;
64678;SDS011;51094;53.864;27.676;2023-07-31T10:58:11;0.70;;;0.70;;
64678;SDS011;51094;53.864;27.676;2023-07-31T11:00:40;0.60;;;0.60;;
64678;SDS011;51094;53.864;27.676;2023-07-31T11:03:12;0.60;;;0.60;;
64678;SDS011;51094;53.864;27.676;2023-07-31T11:08:30;0.80;;;0.80;;
64678;SDS011;51094;53.864;27.676;2023-07-31T11:13:29;0.60;;;0.60;;
64678;SDS011;51094;53.864;27.676;2023-07-31T11:16:09;0.70;;;0.70;;
64678;SDS011;51094;53.864;27.676;2023-07-31T11:18:38;0.70;;;0.70;;
64678;SDS011;51094;53.864;27.676;2023-07-31T11:21:15;0.80;;;0.80;;
64678;SDS011;51094;53.864;27.676;2023-07-31T11:23:52;0.60;;;0.60;;
64678;SDS011;51094;53.864;27.676;2023-07-31T11:26:24;0.60;;;0.60;;
64678;SDS011;51094;53.864;27.676;2023-07-31T11:28:51;0.70;;;0.70;;
64678;SDS011;51094;53.864;27.676;2023-07-31T11:31:18;0.70;;;0.70;;
64678;SDS011;51094;53.864;27.676;2023-07-31T11:33:45;0.77;;;0.77;;
64678;SDS011;51094;53.864;27.676;2023-07-31T11:36:16;0.63;;;0.63;;
64678;SDS011;51094;53.864;27.676;2023-07-31T11:38:44;0.70;;;0.70;;
64678;SDS011;51094;53.864;27.676;2023-07-31T11:41:13;1.20;;;1.20;;
64678;SDS011;51094;53.864;27.676;2023-07-31T11:43:42;1.10;;;1.10;;
64678;SDS011;51094;53.864;27.676;2023-07-31T11:46:09;0.90;;;0.90;;
64678;SDS011;51094;53.864;27.676;2023-07-31T11:48:37;1.00;;;1.00;;
64678;SDS011;51094;53.864;27.676;2023-07-31T11:51:05;1.15;;;1.15;;
64678;SDS011;51094;53.864;27.676;2023-07-31T11:53:36;1.02;;;1.02;;
64678;SDS011;51094;53.864;27.676;2023-07-31T11:56:12;0.63;;;0.63;;
64678;SDS011;51094;53.864;27.676;2023-07-31T11:58:42;0.70;;;0.70;;
64678;SDS011;51094;53.864;27.676;2023-07-31T12:01:11;0.80;;;0.80;;
64678;SDS011;51094;53.864;27.676;2023-07-31T12:03:43;0.80;;;0.80;;
64678;SDS011;51094;53.864;27.676;2023-07-31T12:06:11;0.70;;;0.70;;
64678;SDS011;51094;53.864;27.676;2023-07-31T12:08:38;0.60;;;0.60;;
64678;SDS011;51094;53.864;27.676;2023-07-31T12:11:05;0.60;;;0.60;;
64678;SDS011;51094;53.864;27.676;2023-07-31T12:13:36;0.70;;;0.70;;
64678;SDS011;51094;53.864;27.676;2023-07-31T12:16:03;0.80;;;0.80;;
64678;SDS011;51094;53.864;27.676;2023-07-31T12:18:34;0.80;;;0.80;;
64678;SDS011;51094;53.864;27.676;2023-07-31T12:21:06;0.60;;;0.60;;
64678;SDS011;51094;53.864;27.676;2023-07-31T12:23:35;0.90;;;0.90;;
64678;SDS011;51094;53.864;27.676;2023-07-31T12:26:05;0.70;;;0.70;;
64678;SDS011;51094;53.864;27.676;2023-07-31T12:28:36;0.70;;;0.70;;
64678;SDS011;51094;53.864;27.676;2023-07-31T12:31:08;0.70;;;0.70;;
64678;SDS011;51094;53.864;27.676;2023-07-31T12:33:37;0.73;;;0.73;;
64678;SDS011;51094;53.864;27.676;2023-07-31T12:36:24;0.60;;;0.60;;
64678;SDS011;51094;53.864;27.676;2023-07-31T12:38:51;0.52;;;0.52;;
64678;SDS011;51094;53.864;27.676;2023-07-31T12:41:19;0.60;;;0.60;;
64678;SDS011;51094;53.864;27.676;2023-07-31T12:43:45;0.50;;;0.50;;
64678;SDS011;51094;53.864;27.676;2023-07-31T12:46:13;0.63;;;0.63;;
64678;SDS011;51094;53.864;27.676;2023-07-31T12:48:40;0.60;;;0.60;;
64678;SDS011;51094;53.864;27.676;2023-07-31T12:51:07;0.70;;;0.70;;
64678;SDS011;51094;53.864;27.676;2023-07-31T12:53:34;0.70;;;0.70;;
64678;SDS011;51094;53.864;27.676;2023-07-31T12:56:02;0.70;;;0.70;;
64678;SDS011;51094;53.864;27.676;2023-07-31T12:58:29;0.80;;;0.80;;
64678;SDS011;51094;53.864;27.676;2023-07-31T13:00:56;0.80;;;0.80;;
64678;SDS011;51094;53.864;27.676;2023-07-31T13:03:23;1.30;;;1.30;;
64678;SDS011;51094;53.864;27.676;2023-07-31T13:05:50;1.20;;;1.20;;
64678;SDS011;51094;53.864;27.676;2023-07-31T13:08:17;1.23;;;1.23;;
64678;SDS011;51094;53.864;27.676;2023-07-31T13:10:44;1.52;;;1.48;;
64678;SDS011;51094;53.864;27.676;2023-07-31T13:13:11;1.40;;;1.40;;
64678;SDS011;51094;53.864;27.676;2023-07-31T13:15:38;1.77;;;1.77;;
64678;SDS011;51094;53.864;27.676;2023-07-31T13:18:05;1.70;;;1.70;;
64678;SDS011;51094;53.864;27.676;2023-07-31T13:20:32;1.90;;;1.90;;
64678;SDS011;51094;53.864;27.676;2023-07-31T13:22:58;1.23;;;1.23;;
64678;SDS011;51094;53.864;27.676;2023-07-31T13:25:25;1.00;;;1.00;;
64678;SDS011;51094;53.864;27.676;2023-07-31T13:27:52;1.10;;;1.10;;
64678;SDS011;51094;53.864;27.676;2023-07-31T13:30:19;0.90;;;0.90;;
64678;SDS011;51094;53.864;27.676;2023-07-31T13:32:45;1.10;;;1.10;;
64678;SDS011;51094;53.864;27.676;2023-07-31T13:35:13;1.33;;;1.23;;
64678;SDS011;51094;53.864;27.676;2023-07-31T13:37:40;1.30;;;1.30;;
64678;SDS011;51094;53.864;27.676;2023-07-31T13:40:07;1.13;;;1.13;;
64678;SDS011;51094;53.864;27.676;2023-07-31T13:42:34;1.00;;;1.00;;
64678;SDS011;51094;53.864;27.676;2023-07-31T13:45:01;1.10;;;1.10;;
64678;SDS011;51094;53.864;27.676;2023-07-31T13:47:31;1.10;;;1.10;;
64678;SDS011;51094;53.864;27.676;2023-07-31T13:49:58;1.20;;;1.20;;
64678;SDS011;51094;53.864;27.676;2023-07-31T13:52:25;1.30;;;1.30;;
64678;SDS011;51094;53.864;27.676;2023-07-31T13:54:52;1.40;;;1.40;;
64678;SDS011;51094;53.864;27.676;2023-07-31T13:57:18;1.70;;;1.70;;
64678;SDS011;51094;53.864;27.676;2023-07-31T13:59:45;1.60;;;1.60;;
64678;SDS011;51094;53.864;27.676;2023-07-31T14:02:12;2.40;;;2.40;;
64678;SDS011;51094;53.864;27.676;2023-07-31T14:04:41;2.50;;;2.40;;
64678;SDS011;51094;53.864;27.676;2023-07-31T14:07:08;1.80;;;1.80;;
64678;SDS011;51094;53.864;27.676;2023-07-31T14:12:04;1.63;;;1.63;;
64678;SDS011;51094;53.864;27.676;2023-07-31T14:14:31;1.80;;;1.80;;
64678;SDS011;51094;53.864;27.676;2023-07-31T14:17:01;1.70;;;1.70;;
64678;SDS011;51094;53.864;27.676;2023-07-31T14:19:28;1.65;;;1.65;;
64678;SDS011;51094;53.864;27.676;2023-07-31T14:21:57;1.65;;;1.65;;
64678;SDS011;51094;53.864;27.676;2023-07-31T14:24:37;1.50;;;1.50;;
64678;SDS011;51094;53.864;27.676;2023-07-31T14:27:04;1.67;;;1.67;;
64678;SDS011;51094;53.864;27.676;2023-07-31T14:29:31;1.60;;;1.60;;
64678;SDS011;51094;53.864;27.676;2023-07-31T14:31:58;1.90;;;1.80;;
64678;SDS011;51094;53.864;27.676;2023-07-31T14:34:26;1.98;;;1.98;;
64678;SDS011;51094;53.864;27.676;2023-07-31T14:36:53;2.00;;;2.00;;
64678;SDS011;51094;53.864;27.676;2023-07-31T14:39:20;2.00;;;2.00;;
64678;SDS011;51094;53.864;27.676;2023-07-31T14:41:47;1.60;;;1.60;;
64678;SDS011;51094;53.864;27.676;2023-07-31T14:44:14;1.45;;;1.45;;
64678;SDS011;51094;53.864;27.676;2023-07-31T14:46:41;1.50;;;1.50;;
64678;SDS011;51094;53.864;27.676;2023-07-31T14:49:09;1.45;;;1.45;;
64678;SDS011;51094;53.864;27.676;2023-07-31T14:51:36;1.60;;;1.60;;
64678;SDS011;51094;53.864;27.676;2023-07-31T14:54:02;1.40;;;1.40;;